To NAV CANADA Home Page Login to a new session Search on AWWS site Feedback and Comments Disclaimer Vers la page française équivalente Tips FAQ What's new on the site To the Forecasts and Observations / NOTAM section To "File a Flight Plan" website Publications and other links Update of the User's profile FIC Telephone Numbers My Weather Data Folder Route Weather Data Regional Weather Data Local Weather Data To the Forecasts and Observations / NOTAM section
Request Generated 04/16/2014 at 13:33:17 UTC . Weather information available at that time is displayed.

METAR/TAF

CALGARY/SPRINGBANK/AB    

SPECI CYBW 161324Z AUTO 04002KT 1SM R34/P6000FT/U -SN VV014 M05/M05
A2999 RMK VIS VRB 5/8-2 SLP209=
METAR CYBW 161300Z AUTO 02002KT 1/2SM R34/P6000FT/D SN VV012 M05/M05
A2999 RMK SLP208=
SPECI CYBW 161244Z AUTO 01003KT 3/4SM R34/P6000FT/D -SN OVC021
M05/M05 A2998 RMK VIS VRB 1/2-2 1/4 SLP203=
SPECI CYBW 161241Z AUTO 01003KT 1SM R34/P6000FT/D -SN OVC023 M05/M05
A2998 RMK VIS VRB 3/4-2 1/4 SLP203=
SPECI CYBW 161202Z AUTO 01004KT 2 1/4SM -SN FEW019 OVC027 M05/M05
A2998 RMK VIS VRB 1 1/2-3 SLP202=
METAR CYBW 161200Z AUTO 01005KT 3SM -SN FEW019 OVC027 M05/M05 A2998
RMK VIS VRB 1 3/4-3 SLP202=
SPECI CYBW 161136Z AUTO 01006KT 5SM -SN SCT019 OVC033 M04/M05 A2997
RMK SLP199=
SPECI CYBW 161120Z AUTO 01007KT 6SM -SN SCT019 OVC028 M04/M05 A2998
RMK SLP200=
SPECI CYBW 161117Z AUTO 01007KT 4SM -SN SCT019 OVC026 M04/M05 A2998
RMK SLP200=
SPECI CYBW 161111Z AUTO 36007KT 3SM -SN OVC021 M04/M05 A2998 RMK
SLP200=
METAR CYBW 161100Z AUTO 36007KT 1 1/2SM -SN OVC019 M04/M05 A2998 RMK
SLP200=

TAF AMD CYBW 161248Z 1613/1701 VRB03KT 1/2SM SHSN OVC008 TEMPO
1613/1615 3SM -SN OVC020
FM161500 10008KT P6SM -SN OVC030 TEMPO 1615/1620 2SM -SHSN BKN008
FM162000 12010KT P6SM BKN030 TEMPO 1620/1701 4SM -SHSN BKN020
RMK FCST BASED ON AUTO OBS. NXT FCST BY 161800Z=
Your time UTC time
Weather data provided by Environment Canada and NAV CANADA